createdAt,value
2019-05-14T06:15:44.721Z,89.98
2019-05-14T06:16:29.749Z,89.61
2019-05-14T06:17:29.774Z,89.70
2019-05-14T06:18:29.780Z,89.70
2019-05-14T06:19:29.790Z,89.89
2019-05-14T06:20:29.797Z,88.98
2019-05-14T06:21:29.822Z,89.26
2019-05-14T06:22:29.813Z,88.98
2019-05-14T06:23:29.825Z,88.89
2019-05-14T06:24:29.905Z,88.12
2019-05-14T06:25:31.169Z,87.93
2019-05-14T06:26:29.852Z,86.79
2019-05-14T06:27:29.869Z,86.69
2019-05-14T06:28:33.295Z,86.60
2019-05-14T06:29:29.932Z,86.69
2019-05-14T06:30:29.906Z,86.79
2019-05-14T06:31:29.923Z,85.74
2019-05-14T06:32:29.930Z,85.84
2019-05-14T06:33:29.934Z,85.88
2019-05-14T06:34:29.959Z,85.88
2019-05-14T06:35:29.961Z,86.07
2019-05-14T06:36:29.972Z,85.69
2019-05-14T06:37:30.207Z,85.41
2019-05-14T06:38:30.042Z,84.11
2019-05-14T06:39:30.065Z,83.78
2019-05-14T06:40:30.023Z,84.11
2019-05-14T06:41:30.033Z,84.11
2019-05-14T06:42:30.047Z,83.73
2019-05-14T06:43:30.065Z,83.44
2019-05-14T06:44:30.075Z,83.73
2019-05-14T06:45:30.088Z,83.64
2019-05-14T06:46:30.109Z,83.54
2019-05-14T06:47:30.106Z,83.73
2019-05-14T06:48:34.346Z,83.16
2019-05-14T06:49:30.134Z,82.49
2019-05-14T06:50:30.151Z,82.40
2019-05-14T06:51:30.157Z,82.01
2019-05-14T06:52:30.171Z,81.82
2019-05-14T06:53:30.192Z,81.58
2019-05-14T06:54:30.194Z,80.91
2019-05-14T06:55:30.209Z,80.33
2019-05-14T06:56:30.225Z,79.96
2019-05-14T06:57:30.242Z,80.43
2019-05-14T06:58:30.252Z,80.62
2019-05-14T06:59:30.367Z,79.48
2019-05-14T07:00:30.270Z,79.48
2019-05-14T07:01:30.294Z,79.52
2019-05-14T07:02:30.306Z,79.43
2019-05-14T07:03:30.321Z,79.23
2019-05-14T07:04:30.338Z,79.04
2019-05-14T07:05:30.345Z,79.04
2019-05-14T07:06:30.354Z,78.18
2019-05-14T07:07:30.414Z,76.88
2019-05-14T07:08:30.382Z,77.26
2019-05-14T07:09:30.404Z,76.79
2019-05-14T07:10:30.422Z,76.21
2019-05-14T07:11:30.425Z,76.40
2019-05-14T07:12:30.442Z,75.64
2019-05-14T07:13:30.475Z,75.26
2019-05-14T07:14:30.548Z,74.78
2019-05-14T07:15:30.513Z,75.07
2019-05-14T07:16:30.503Z,75.16
2019-05-14T07:17:30.509Z,75.45
2019-05-14T07:18:45.734Z,75.30
2019-05-14T07:19:30.540Z,75.20
2019-05-14T07:20:30.565Z,74.44
2019-05-14T07:21:30.568Z,73.33
2019-05-14T07:22:30.590Z,73.14
2019-05-14T07:23:30.597Z,72.28
2019-05-14T07:24:30.609Z,71.61
2019-05-14T07:25:30.638Z,71.57
2019-05-14T07:26:30.655Z,73.04
2019-05-14T07:27:30.674Z,72.28
2019-05-14T07:28:30.681Z,72.37
2019-05-14T07:29:30.697Z,72.28
2019-05-14T07:30:30.708Z,71.22
2019-05-14T07:31:30.717Z,71.03
2019-05-14T07:32:30.736Z,71.89
2019-05-14T07:33:30.748Z,71.61
2019-05-14T07:34:30.789Z,71.64
2019-05-14T07:35:30.769Z,71.07
2019-05-14T07:36:30.797Z,69.64
2019-05-14T07:37:30.814Z,68.80
2019-05-14T07:38:30.824Z,68.71
2019-05-14T07:39:30.836Z,68.68
2019-05-14T07:40:30.857Z,68.49
2019-05-14T07:41:30.877Z,68.68
2019-05-14T07:42:30.885Z,68.58
2019-05-14T07:43:30.901Z,68.62
2019-05-14T07:44:30.919Z,68.10
2019-05-14T07:45:33.307Z,68.39
2019-05-14T07:46:30.950Z,67.72
2019-05-14T07:47:30.950Z,67.53
2019-05-14T07:48:30.974Z,68.68
2019-05-14T07:49:30.981Z,67.24
2019-05-14T07:50:31.008Z,67.24
2019-05-14T07:51:31.023Z,67.82
2019-05-14T07:52:31.040Z,68.04
2019-05-14T07:53:38.543Z,67.85
2019-05-14T07:54:31.072Z,67.02
2019-05-14T07:55:31.084Z,66.25
2019-05-14T07:56:31.097Z,65.23
2019-05-14T07:57:31.109Z,64.82
2019-05-14T07:58:31.124Z,64.63
2019-05-14T07:59:31.148Z,64.66
2019-05-14T08:00:31.160Z,65.11
2019-05-14T08:01:31.180Z,64.43
2019-05-14T08:02:31.195Z,64.09
2019-05-14T08:03:31.201Z,63.48
2019-05-14T08:04:31.226Z,64.05
2019-05-14T08:05:31.238Z,64.09
2019-05-14T08:06:31.248Z,63.51
2019-05-14T08:07:31.269Z,63.13
2019-05-14T08:08:31.297Z,62.59
2019-05-14T08:09:31.359Z,62.01
2019-05-14T08:10:31.318Z,61.53
2019-05-14T08:11:31.338Z,61.24
2019-05-14T08:12:31.351Z,61.53
2019-05-14T08:13:31.363Z,61.24
2019-05-14T08:14:42.103Z,61.15
2019-05-14T08:15:31.395Z,60.38
2019-05-14T08:16:31.515Z,60.19
2019-05-14T08:17:31.427Z,60.28
2019-05-14T08:18:31.449Z,60.50
2019-05-14T08:19:34.311Z,59.93
2019-05-14T08:20:31.473Z,59.36
2019-05-14T08:21:31.491Z,58.91
2019-05-14T08:22:31.513Z,57.92
2019-05-14T08:23:31.521Z,58.01
2019-05-14T08:24:31.551Z,57.92
2019-05-14T08:25:31.559Z,58.33
2019-05-14T08:26:31.587Z,58.33
2019-05-14T08:27:31.587Z,57.95
2019-05-14T08:28:31.606Z,57.75
2019-05-14T08:29:31.621Z,58.30
2019-05-14T08:30:31.638Z,58.33
2019-05-14T08:31:31.651Z,57.08
2019-05-14T08:32:31.682Z,56.79
2019-05-14T08:33:31.687Z,56.73
2019-05-14T08:34:32.396Z,57.04
2019-05-14T08:35:34.223Z,56.18
2019-05-14T08:36:31.735Z,55.05
2019-05-14T08:37:31.760Z,54.96
2019-05-14T08:38:31.764Z,54.86
2019-05-14T08:39:31.777Z,54.60
2019-05-14T08:40:31.798Z,53.16
2019-05-14T08:41:31.815Z,52.58
2019-05-14T08:42:34.100Z,52.97
2019-05-14T08:43:31.850Z,53.23
2019-05-14T08:44:31.869Z,54.45
2019-05-14T08:45:31.904Z,55.51
2019-05-14T08:46:31.900Z,54.38
2019-05-14T08:47:31.918Z,54.09
2019-05-14T08:48:31.944Z,53.35
2019-05-14T08:49:43.936Z,53.06
2019-05-14T08:50:31.962Z,53.16
2019-05-14T08:51:31.985Z,52.29
2019-05-14T08:52:31.998Z,52.32
2019-05-14T08:53:32.031Z,51.26
2019-05-14T08:54:32.051Z,50.81
2019-05-14T08:55:32.049Z,48.79
2019-05-14T08:56:32.065Z,48.88
2019-05-14T08:57:32.133Z,49.17
2019-05-14T08:58:32.093Z,49.17
2019-05-14T08:59:32.115Z,49.74
2019-05-14T09:00:32.135Z,49.55
2019-05-14T09:01:32.142Z,49.63
2019-05-14T09:02:32.168Z,50.10
2019-05-14T09:03:32.182Z,50.59
2019-05-14T09:04:32.202Z,50.20
2019-05-14T09:05:32.216Z,49.94
2019-05-14T09:06:32.239Z,49.72
2019-05-14T09:07:32.262Z,50.04
2019-05-14T09:08:32.257Z,49.72
2019-05-14T09:09:32.277Z,48.85
2019-05-14T09:10:32.296Z,48.07
2019-05-14T09:11:35.337Z,48.79
2019-05-14T09:12:32.330Z,50.39
2019-05-14T09:13:32.339Z,51.35
2019-05-14T09:14:32.358Z,51.76
2019-05-14T09:15:32.387Z,51.76
2019-05-14T09:16:45.917Z,52.34
2019-05-14T09:17:32.398Z,52.24
2019-05-14T09:18:32.415Z,52.05
2019-05-14T09:19:32.433Z,52.62
2019-05-14T09:21:32.455Z,51.95
2019-05-14T09:23:32.488Z,50.95
2019-05-14T09:24:32.497Z,49.43
2019-05-14T09:25:32.534Z,48.79
2019-05-14T09:26:32.537Z,46.95
2019-05-14T09:27:32.551Z,46.38
2019-05-14T09:28:32.559Z,46.45
2019-05-14T09:29:32.582Z,46.26
2019-05-14T09:30:32.593Z,46.81
2019-05-14T09:31:32.609Z,48.04
2019-05-14T09:32:32.632Z,49.10
2019-05-14T09:33:32.636Z,48.81
2019-05-14T09:34:32.653Z,48.23
2019-05-14T09:35:32.668Z,47.30
2019-05-14T09:36:32.678Z,46.36
2019-05-14T09:37:32.694Z,45.03
2019-05-14T09:38:32.706Z,44.65
2019-05-14T09:39:32.723Z,44.84
2019-05-14T09:40:32.744Z,44.86
2019-05-14T09:41:32.757Z,45.53
2019-05-14T09:42:32.770Z,44.86
2019-05-14T09:43:32.784Z,44.55
2019-05-14T09:44:32.797Z,45.78
2019-05-14T09:45:32.816Z,46.33
2019-05-14T09:46:32.832Z,47.36
2019-05-14T09:47:32.848Z,48.04
2019-05-14T09:48:32.852Z,48.69
2019-05-14T09:49:32.876Z,49.26
2019-05-14T09:50:32.887Z,49.36
2019-05-14T09:51:32.900Z,49.65
2019-05-14T09:52:32.917Z,48.90
2019-05-14T09:53:32.937Z,48.81
2019-05-14T09:54:32.941Z,47.66
2019-05-14T09:55:32.946Z,47.46
2019-05-14T09:56:33.048Z,47.36
2019-05-14T09:57:32.981Z,46.91
2019-05-14T09:58:32.993Z,46.64
2019-05-14T09:59:33.023Z,46.19
2019-05-14T10:00:33.025Z,43.54
2019-05-14T10:01:33.038Z,43.13
2019-05-14T10:02:33.056Z,42.88
2019-05-14T10:03:33.055Z,42.49
2019-05-14T10:04:33.126Z,41.27
2019-05-14T10:05:33.091Z,41.44
2019-05-14T10:06:33.100Z,41.99
2019-05-14T10:07:33.125Z,42.07
2019-05-14T10:08:33.138Z,43.28
2019-05-14T10:09:33.152Z,44.34
2019-05-14T10:10:33.170Z,44.79
2019-05-14T10:11:33.171Z,45.08
2019-05-14T10:12:33.187Z,45.35
2019-05-14T10:13:33.201Z,46.12
2019-05-14T10:14:33.234Z,47.05
2019-05-14T10:15:33.238Z,46.96
2019-05-14T10:16:33.247Z,46.79
2019-05-14T10:17:33.275Z,46.33
2019-05-14T10:18:33.276Z,45.03
2019-05-14T10:19:33.288Z,44.28
2019-05-14T10:20:41.086Z,43.05
2019-05-14T10:21:33.324Z,42.52
2019-05-14T10:22:33.328Z,40.78
2019-05-14T10:23:33.468Z,40.51
2019-05-14T10:25:33.369Z,39.45
2019-05-14T10:26:33.384Z,40.20
2019-05-14T10:27:33.398Z,40.57
2019-05-14T10:28:33.410Z,40.55
2019-05-14T10:29:33.444Z,41.59
2019-05-14T10:30:33.461Z,42.33
2019-05-14T10:31:33.470Z,43.18
2019-05-14T10:32:33.483Z,42.91
2019-05-14T10:33:33.493Z,41.97
2019-05-14T10:34:33.510Z,41.01
2019-05-14T10:35:33.524Z,41.03
2019-05-14T10:36:33.529Z,40.28
2019-05-14T10:37:33.555Z,39.43
2019-05-14T10:38:33.564Z,39.03
2019-05-14T10:39:33.582Z,39.51
2019-05-14T10:40:33.606Z,39.14
2019-05-14T10:41:33.615Z,38.60
2019-05-14T10:42:33.617Z,37.15
2019-05-14T10:43:33.634Z,36.69
2019-05-14T10:44:33.668Z,35.94
2019-05-14T10:45:33.671Z,36.05
2019-05-14T10:46:33.689Z,35.00
2019-05-14T10:47:33.707Z,33.57
2019-05-14T10:48:33.786Z,32.89
2019-05-14T10:49:33.730Z,33.25
2019-05-14T10:50:37.870Z,34.20
2019-05-14T10:51:33.758Z,34.45
2019-05-14T10:52:33.781Z,35.78
2019-05-14T10:53:33.812Z,36.63
2019-05-14T10:54:33.800Z,36.89
2019-05-14T10:55:33.856Z,38.02
2019-05-14T10:56:33.834Z,38.89
2019-05-14T10:57:33.861Z,38.37
2019-05-14T10:58:34.210Z,36.96
2019-05-14T10:59:33.912Z,35.14
2019-05-14T11:00:33.912Z,34.60
2019-05-14T11:01:33.914Z,33.07
2019-05-14T11:02:33.947Z,32.70
2019-05-14T11:03:33.930Z,31.84
2019-05-14T11:04:34.556Z,31.57
2019-05-14T11:05:33.959Z,31.02
2019-05-14T11:06:34.001Z,30.74
2019-05-14T11:07:34.019Z,30.41
2019-05-14T11:08:34.109Z,30.60
2019-05-14T11:09:34.035Z,30.98
2019-05-14T11:10:34.133Z,32.29
2019-05-14T11:11:34.151Z,32.47
2019-05-14T11:12:34.232Z,33.33
2019-05-14T11:13:34.288Z,33.78
2019-05-14T11:14:34.356Z,34.20
2019-05-14T11:15:34.414Z,33.94
2019-05-14T11:16:34.467Z,32.47
2019-05-14T11:17:34.297Z,32.84
2019-05-14T11:18:34.188Z,34.10
2019-05-14T11:19:34.303Z,33.36
2019-05-14T11:20:34.203Z,32.81
2019-05-14T11:21:34.214Z,31.26
2019-05-14T11:22:34.240Z,32.02
2019-05-14T11:23:34.267Z,32.28
2019-05-14T11:24:34.274Z,32.96
2019-05-14T11:25:34.277Z,32.70
2019-05-14T11:26:34.314Z,32.70
2019-05-14T11:27:34.320Z,31.47
2019-05-14T11:28:34.335Z,30.31
2019-05-14T11:29:34.345Z,29.76
2019-05-14T11:30:34.376Z,29.16
2019-05-14T11:31:34.516Z,29.55
2019-05-14T11:32:34.386Z,29.37
2019-05-14T11:33:34.407Z,29.30
2019-05-14T11:34:34.433Z,28.25
2019-05-14T11:35:34.449Z,27.47
2019-05-14T11:36:34.468Z,27.08
2019-05-14T11:37:34.497Z,27.18
2019-05-14T11:38:37.555Z,27.08
2019-05-14T11:39:34.509Z,27.37
2019-05-14T11:40:34.543Z,27.28
2019-05-14T11:41:34.539Z,27.35
2019-05-14T11:42:34.565Z,27.54
2019-05-14T11:43:34.571Z,27.56
2019-05-14T11:44:34.596Z,27.19
2019-05-14T11:45:34.620Z,27.40
2019-05-14T11:46:47.594Z,26.92
2019-05-14T11:47:34.655Z,27.28
2019-05-14T11:48:34.675Z,28.43
2019-05-14T11:49:34.704Z,29.06
2019-05-14T11:50:34.723Z,29.73
2019-05-14T11:51:58.946Z,30.10
2019-05-14T11:52:34.732Z,30.96
2019-05-14T11:53:34.791Z,30.79
2019-05-14T11:54:34.761Z,29.66
2019-05-14T11:55:34.776Z,28.90
2019-05-14T11:56:34.786Z,28.17
2019-05-14T11:57:34.818Z,26.92
2019-05-14T11:58:34.837Z,25.95
2019-05-14T11:59:34.847Z,26.15
2019-05-14T12:00:34.860Z,26.06
2019-05-14T12:01:34.878Z,25.58
2019-05-14T12:02:34.908Z,25.20
2019-05-14T12:03:34.966Z,25.48
2019-05-14T12:04:35.056Z,25.97
2019-05-14T12:05:34.996Z,25.58
2019-05-14T12:06:34.956Z,25.59
2019-05-14T12:07:34.987Z,25.01
2019-05-14T12:08:35.011Z,25.57
2019-05-14T12:09:35.673Z,26.32
2019-05-14T12:10:35.017Z,26.71
2019-05-14T12:11:35.043Z,26.53
2019-05-14T12:12:35.073Z,25.36
2019-05-14T12:13:35.073Z,25.15
2019-05-14T12:14:35.099Z,25.56
2019-05-14T12:15:35.110Z,25.78
2019-05-14T12:16:35.130Z,25.09
2019-05-14T12:17:35.145Z,25.01
2019-05-14T12:18:35.158Z,24.63
2019-05-14T12:19:35.208Z,24.44
2019-05-14T12:20:35.208Z,24.55
2019-05-14T12:21:35.215Z,24.54
2019-05-14T12:22:35.231Z,25.18
2019-05-14T12:23:35.256Z,25.82
2019-05-14T12:24:35.271Z,26.40
2019-05-14T12:25:35.397Z,25.93
2019-05-14T12:26:35.294Z,25.26
2019-05-14T12:27:35.322Z,24.80
2019-05-14T12:28:35.355Z,23.85
2019-05-14T12:29:35.356Z,23.68
2019-05-14T12:31:35.379Z,22.34
2019-05-14T12:32:35.422Z,22.42
2019-05-14T12:33:35.410Z,23.29
2019-05-14T12:34:35.431Z,23.65
2019-05-14T12:35:35.454Z,24.78
2019-05-14T12:36:35.503Z,25.46
2019-05-14T12:37:38.483Z,25.47
2019-05-14T12:38:35.509Z,25.30
2019-05-14T12:39:35.519Z,24.73
2019-05-14T12:40:38.099Z,24.74
2019-05-14T12:41:35.545Z,24.56
2019-05-14T12:42:35.576Z,23.60
2019-05-14T12:43:35.585Z,23.22
2019-05-14T12:44:40.044Z,22.73
2019-05-14T12:45:35.635Z,23.02
2019-05-14T12:46:35.638Z,22.73
2019-05-14T12:47:38.251Z,23.02
2019-05-14T12:48:38.667Z,22.74
2019-05-14T12:49:35.696Z,22.25
2019-05-14T12:50:35.713Z,21.95
2019-05-14T12:51:39.298Z,21.57
2019-05-14T12:52:35.752Z,21.97
2019-05-14T12:53:35.768Z,21.75
2019-05-14T12:54:38.448Z,22.44
2019-05-14T12:55:35.831Z,22.45
2019-05-14T12:56:38.788Z,22.07
2019-05-14T12:57:39.032Z,21.59
2019-05-14T12:58:42.899Z,21.00
2019-05-14T12:59:37.908Z,21.00
2019-05-14T13:00:35.885Z,21.48
2019-05-14T13:01:35.918Z,21.60
2019-05-14T13:02:35.926Z,20.93
2019-05-14T13:03:35.949Z,20.04
2019-05-14T13:04:35.965Z,20.92
2019-05-14T13:05:35.989Z,21.41
2019-05-14T13:06:36.002Z,21.00
2019-05-14T13:07:36.022Z,21.00
2019-05-14T13:08:38.398Z,21.50
2019-05-14T13:09:38.336Z,20.93
2019-05-14T13:10:38.416Z,20.43
2019-05-14T13:11:40.973Z,20.53
2019-05-14T13:12:38.763Z,20.72
2019-05-14T13:13:36.128Z,20.72
2019-05-14T13:14:36.152Z,21.01
2019-05-14T13:15:39.078Z,21.60
2019-05-14T13:16:36.197Z,21.95
2019-05-14T13:17:38.577Z,22.99
2019-05-14T13:18:38.745Z,23.44
2019-05-14T13:19:37.995Z,24.21
2019-05-14T13:20:38.710Z,24.96
2019-05-14T13:21:38.749Z,25.52
2019-05-14T13:22:42.427Z,26.18
2019-05-14T13:23:38.387Z,26.59
2019-05-14T13:24:39.450Z,24.97
2019-05-14T13:25:39.137Z,23.93
2019-05-14T13:26:38.815Z,23.19
2019-05-14T13:27:38.954Z,22.62
2019-05-14T13:28:39.280Z,21.92
2019-05-14T13:29:36.411Z,21.82
2019-05-14T13:30:36.428Z,22.38
2019-05-14T13:31:36.518Z,22.97
2019-05-14T13:32:39.053Z,22.86
2019-05-14T13:33:39.029Z,23.88
2019-05-14T13:34:39.368Z,25.31
2019-05-14T13:35:38.869Z,25.84
2019-05-14T13:36:39.503Z,26.89
2019-05-14T13:37:39.550Z,26.43
2019-05-14T13:38:39.331Z,26.16
2019-05-14T13:39:39.584Z,25.34
2019-05-14T13:40:39.002Z,24.78
2019-05-14T13:41:41.561Z,24.69
2019-05-14T13:42:39.385Z,23.36
2019-05-14T13:43:39.117Z,21.83
2019-05-14T13:44:38.489Z,21.36
2019-05-14T13:45:39.049Z,20.98
2019-05-14T13:46:36.696Z,20.41
2019-05-14T13:47:38.727Z,20.12
2019-05-14T13:48:42.729Z,20.04
2019-05-14T13:49:39.115Z,19.54
2019-05-14T13:50:39.534Z,19.53
2019-05-14T13:51:38.765Z,19.55
2019-05-14T13:52:40.415Z,19.73
2019-05-14T13:53:39.085Z,20.39
2019-05-14T13:54:39.153Z,22.10
2019-05-14T13:55:44.228Z,23.82
2019-05-14T13:56:38.885Z,24.57
2019-05-14T13:57:39.816Z,25.42
2019-05-14T13:58:36.890Z,25.89
2019-05-14T13:59:43.780Z,26.35
2019-05-14T14:00:36.911Z,27.00
2019-05-14T14:01:36.974Z,27.86
2019-05-14T14:02:36.975Z,28.72
2019-05-14T14:03:47.003Z,29.49
2019-05-14T14:04:38.185Z,28.87
2019-05-14T14:05:39.243Z,26.89
2019-05-14T14:06:39.385Z,24.79
2019-05-14T14:07:39.469Z,23.74
2019-05-14T14:08:41.894Z,23.38
2019-05-14T14:09:39.549Z,22.61
2019-05-14T14:10:44.518Z,22.16
2019-05-14T14:11:38.343Z,21.78
2019-05-14T14:12:39.923Z,20.43
2019-05-14T14:13:39.191Z,19.65
2019-05-14T14:14:38.588Z,19.53
2019-05-14T14:15:38.420Z,20.12
2019-05-14T14:16:39.543Z,19.73
2019-05-14T14:17:39.185Z,19.84
2019-05-14T14:18:39.457Z,19.73
2019-05-14T14:19:38.853Z,19.88
2019-05-14T14:20:39.423Z,20.37
2019-05-14T14:21:39.750Z,20.56
2019-05-14T14:22:40.041Z,20.48
2019-05-14T14:23:39.237Z,19.62
2019-05-14T14:24:38.656Z,19.63
2019-05-14T14:25:39.466Z,20.09
2019-05-14T14:26:39.333Z,20.67
2019-05-14T14:27:40.659Z,20.28
2019-05-14T14:28:39.661Z,20.02
2019-05-14T14:29:39.542Z,19.64
2019-05-14T14:30:39.452Z,19.53
2019-05-14T14:31:41.418Z,20.04
2019-05-14T14:32:40.210Z,19.37
2019-05-14T14:33:39.120Z,18.68
2019-05-14T14:34:41.253Z,18.93
2019-05-14T14:35:38.773Z,20.77
2019-05-14T14:36:38.640Z,21.11
2019-05-14T14:37:39.673Z,22.87
2019-05-14T14:38:40.038Z,22.47
2019-05-14T14:39:37.581Z,22.86
2019-05-14T14:40:39.606Z,22.67
2019-05-14T14:41:38.421Z,21.91
2019-05-14T14:42:40.106Z,21.14
2019-05-14T14:43:42.813Z,21.44
2019-05-14T14:44:39.310Z,20.87
2019-05-14T14:45:44.714Z,20.51
2019-05-14T14:46:39.205Z,19.14
2019-05-14T14:47:39.360Z,19.05
2019-05-14T14:48:39.619Z,18.77
2019-05-14T14:49:43.429Z,18.66
2019-05-14T14:51:44.089Z,19.17
2019-05-14T14:52:37.814Z,18.79
2019-05-14T14:53:51.980Z,18.59
2019-05-14T14:54:38.235Z,18.66
2019-05-14T14:55:39.934Z,19.13
2019-05-14T14:56:38.060Z,19.73
2019-05-14T14:57:44.545Z,20.30
2019-05-14T14:58:39.156Z,20.76
2019-05-14T14:59:39.082Z,21.88
2019-05-14T15:00:38.144Z,22.96
2019-05-14T15:01:40.348Z,22.76
2019-05-14T15:02:40.789Z,23.33
2019-05-14T15:03:37.967Z,23.99
2019-05-14T15:04:39.588Z,25.42
2019-05-14T15:05:38.979Z,25.67
2019-05-14T15:06:39.729Z,25.88
2019-05-14T15:07:40.749Z,25.92
2019-05-14T15:08:38.990Z,25.07
2019-05-14T15:09:40.471Z,24.12
2019-05-14T15:10:39.471Z,23.45
2019-05-14T15:11:39.704Z,22.87
2019-05-14T15:12:40.030Z,22.77
2019-05-14T15:13:39.101Z,23.25
2019-05-14T15:14:39.545Z,23.44
2019-05-14T15:15:39.370Z,23.74
2019-05-14T15:16:39.053Z,23.45
2019-05-14T15:17:39.284Z,23.62
2019-05-14T15:18:38.747Z,24.00
2019-05-14T15:19:39.528Z,24.29
2019-05-14T15:20:38.242Z,24.78
2019-05-14T15:21:38.273Z,24.29
2019-05-14T15:22:38.304Z,23.71
2019-05-14T15:23:42.980Z,24.18
2019-05-14T15:24:38.307Z,24.57
2019-05-14T15:25:38.402Z,24.56
2019-05-14T15:26:38.391Z,24.66
2019-05-14T15:27:38.754Z,24.83
2019-05-14T15:28:38.758Z,25.40
2019-05-14T15:29:39.774Z,26.34
2019-05-14T15:30:39.541Z,27.00
2019-05-14T15:31:38.665Z,27.94
2019-05-14T15:32:38.445Z,29.57
2019-05-14T15:33:38.460Z,29.17
2019-05-14T15:34:38.482Z,29.35
2019-05-14T15:35:38.484Z,30.01
2019-05-14T15:36:41.300Z,30.69
2019-05-14T15:37:42.240Z,30.80
2019-05-14T15:38:39.606Z,30.70
2019-05-14T15:39:39.061Z,30.69
2019-05-14T15:40:40.059Z,31.37
2019-05-14T15:41:39.542Z,31.27
2019-05-14T15:42:39.517Z,31.37
2019-05-14T15:43:39.540Z,30.79
2019-05-14T15:44:48.836Z,30.98
2019-05-14T15:45:38.633Z,30.96
2019-05-14T15:46:41.787Z,31.45
2019-05-14T15:48:39.493Z,31.80
2019-05-14T15:49:38.987Z,32.38
2019-05-14T15:50:39.081Z,32.65
2019-05-14T15:51:39.784Z,33.15
2019-05-14T15:52:39.671Z,32.86
2019-05-14T15:53:38.864Z,33.23
2019-05-14T15:54:46.308Z,33.53
2019-05-14T15:55:38.773Z,33.92
2019-05-14T15:56:39.477Z,33.82
2019-05-14T15:57:39.770Z,33.92
2019-05-14T15:58:39.182Z,33.82
2019-05-14T15:59:39.249Z,33.82
2019-05-14T16:00:38.893Z,34.11
2019-05-14T16:01:39.773Z,34.11
2019-05-14T16:02:39.748Z,34.11
2019-05-14T16:03:41.407Z,33.65
2019-05-14T16:05:39.541Z,32.94
2019-05-14T16:06:38.932Z,33.51
2019-05-14T16:07:39.324Z,33.91
2019-05-14T16:08:40.112Z,34.09
2019-05-14T16:09:39.728Z,34.09
2019-05-14T16:10:39.793Z,33.81
2019-05-14T16:11:39.426Z,34.46
2019-05-14T16:12:39.758Z,34.84
2019-05-14T16:13:39.873Z,35.04
2019-05-14T16:14:39.061Z,35.42
2019-05-14T16:15:39.127Z,36.19
2019-05-14T16:16:39.316Z,35.52
2019-05-14T16:17:47.543Z,35.52
2019-05-14T16:18:39.062Z,35.24
2019-05-14T16:20:39.417Z,35.42
2019-05-14T16:21:39.111Z,35.62
2019-05-14T16:22:40.128Z,35.42
2019-05-14T16:23:39.139Z,35.60
2019-05-14T16:24:53.145Z,35.71
2019-05-14T16:25:39.146Z,35.91
2019-05-14T16:26:39.157Z,35.52
2019-05-14T16:27:39.805Z,35.60
2019-05-14T16:28:39.812Z,39.28
2019-05-14T16:29:45.495Z,41.38
2019-05-14T16:30:39.849Z,39.28
2019-05-14T16:31:43.474Z,38.99
2019-05-14T16:32:39.662Z,39.47
2019-05-14T16:33:40.404Z,40.41
2019-05-14T16:34:40.996Z,40.70
2019-05-14T16:35:39.404Z,40.80
2019-05-14T16:36:41.175Z,40.80
2019-05-14T16:37:40.124Z,42.24
2019-05-14T16:39:58.324Z,43.01
2019-05-14T16:49:51.866Z,42.14
2019-05-14T16:50:51.889Z,42.14
2019-05-14T16:51:51.892Z,42.33
2019-05-14T16:52:51.896Z,41.86
2019-05-14T16:53:51.913Z,42.43
2019-05-14T16:54:51.940Z,40.31
2019-05-14T16:55:51.934Z,39.06
2019-05-14T16:56:51.949Z,40.99
2019-05-14T16:57:51.989Z,40.70
2019-05-14T16:58:51.969Z,41.76
2019-05-14T16:59:51.992Z,41.38
2019-05-14T17:00:51.993Z,41.18
2019-05-14T17:01:52.008Z,40.20
2019-05-14T17:02:52.006Z,42.12
2019-05-14T17:03:52.029Z,43.28
2019-05-14T17:04:52.035Z,41.83
2019-05-14T17:05:52.049Z,43.66
2019-05-14T17:06:52.057Z,41.45
2019-05-14T17:07:52.074Z,40.88
2019-05-14T17:08:52.093Z,42.10
2019-05-14T17:09:52.093Z,40.28
2019-05-14T17:10:52.103Z,41.91
2019-05-14T17:11:52.109Z,43.26
2019-05-14T17:12:57.267Z,40.18
2019-05-14T17:13:52.133Z,38.35
2019-05-14T17:14:52.142Z,37.77
2019-05-14T17:15:52.148Z,38.07
2019-05-14T17:16:52.167Z,37.77
2019-05-14T17:17:52.177Z,37.85
2019-05-14T17:18:52.195Z,37.66
2019-05-14T17:19:52.196Z,37.76
2019-05-14T17:20:52.206Z,37.95
2019-05-14T17:21:52.230Z,38.14
2019-05-14T17:22:52.227Z,38.24
2019-05-14T17:23:52.254Z,38.81
2019-05-14T17:24:52.259Z,38.35
2019-05-14T17:25:52.265Z,38.16
2019-05-14T17:26:52.275Z,38.54
2019-05-14T17:27:52.279Z,37.95
2019-05-14T17:28:52.293Z,38.14
2019-05-14T17:29:52.310Z,38.51
2019-05-14T17:30:52.312Z,38.89
2019-05-14T17:31:52.323Z,38.79
2019-05-14T17:32:52.338Z,38.89
2019-05-14T17:33:52.348Z,39.56
2019-05-14T17:34:52.353Z,39.47
2019-05-14T17:35:52.368Z,40.05
2019-05-14T17:36:52.374Z,39.95
2019-05-14T17:37:52.389Z,40.23
2019-05-14T17:38:52.407Z,39.85
2019-05-14T17:39:52.411Z,40.43
2019-05-14T17:40:52.418Z,40.72
2019-05-14T17:41:52.424Z,40.52
2019-05-14T17:42:52.439Z,41.10
2019-05-14T17:43:52.461Z,40.43
2019-05-14T17:44:52.462Z,40.72
2019-05-14T17:45:52.476Z,40.91
2019-05-14T17:46:52.474Z,40.72
2019-05-14T17:47:52.501Z,40.72
2019-05-14T17:48:52.522Z,40.91
2019-05-14T17:49:52.514Z,41.10
2019-05-14T17:50:52.524Z,41.20
2019-05-14T17:51:52.618Z,40.91
2019-05-14T17:52:56.498Z,40.81
2019-05-14T17:53:52.555Z,40.62
2019-05-14T17:55:52.609Z,40.93
2019-05-14T17:56:52.605Z,40.23
2019-05-14T17:57:58.437Z,40.33
2019-05-14T17:58:52.604Z,40.62
2019-05-14T17:59:52.619Z,40.43
2019-05-14T18:00:52.624Z,40.62
2019-05-14T18:01:52.632Z,40.99
2019-05-14T18:02:52.650Z,41.08
2019-05-14T18:03:52.654Z,41.20
2019-05-14T18:04:56.157Z,41.87
2019-05-14T18:05:52.672Z,41.37
2019-05-14T18:06:52.690Z,41.00
2019-05-14T18:07:52.695Z,41.10
2019-05-14T18:08:52.702Z,40.99
2019-05-14T18:09:52.717Z,41.08
2019-05-14T18:10:52.726Z,40.79
2019-05-14T18:11:52.753Z,41.27
2019-05-14T18:12:52.743Z,40.99
2019-05-14T18:13:52.757Z,41.37
2019-05-14T18:14:52.765Z,41.27
2019-05-14T18:15:52.778Z,41.37
2019-05-14T18:16:52.792Z,41.46
2019-05-14T18:17:52.802Z,41.46
2019-05-14T18:18:52.811Z,42.13
2019-05-14T18:19:52.815Z,41.85
2019-05-14T18:20:52.829Z,42.11
2019-05-14T18:21:52.839Z,42.13
2019-05-14T18:22:52.850Z,42.13
2019-05-14T18:23:52.908Z,42.23
2019-05-14T18:24:52.864Z,42.11
2019-05-14T18:26:04.745Z,41.93
2019-05-14T18:26:52.886Z,41.83
2019-05-14T18:27:52.895Z,42.21
2019-05-14T18:28:52.898Z,42.40
2019-05-14T18:30:52.920Z,42.60
2019-05-14T18:31:54.555Z,42.50
2019-05-14T18:32:52.940Z,42.98
2019-05-14T18:33:52.948Z,42.79
2019-05-14T18:34:52.956Z,42.50
2019-05-14T18:35:52.973Z,42.50
2019-05-14T18:36:52.983Z,42.50
2019-05-14T18:37:52.993Z,42.98
2019-05-14T18:38:52.998Z,42.98
2019-05-14T18:39:53.015Z,43.05
2019-05-14T18:40:53.063Z,43.05
2019-05-14T18:41:53.037Z,43.15
2019-05-14T18:42:53.040Z,43.15
2019-05-14T18:43:53.062Z,43.53
2019-05-14T18:44:53.058Z,43.24
2019-05-14T18:45:53.071Z,43.73
2019-05-14T18:46:53.075Z,43.53
2019-05-14T18:47:53.085Z,43.73
2019-05-14T18:48:53.101Z,43.63
2019-05-14T18:49:53.109Z,43.63
2019-05-14T18:50:53.117Z,44.11
2019-05-14T18:51:53.128Z,44.01
2019-05-14T18:52:53.133Z,43.90
2019-05-14T18:53:53.150Z,44.30
2019-05-14T18:54:53.143Z,44.18
2019-05-14T18:55:53.157Z,44.47
2019-05-14T18:56:53.175Z,44.47
2019-05-14T18:57:53.174Z,44.56
2019-05-14T18:58:53.188Z,44.66
2019-05-14T18:59:53.201Z,45.14
2019-05-14T19:00:53.213Z,45.04
2019-05-14T19:01:54.072Z,45.33
2019-05-14T19:02:53.219Z,45.14
2019-05-14T19:03:53.238Z,45.14
2019-05-14T19:04:53.250Z,45.43
2019-05-14T19:05:53.267Z,45.14
2019-05-14T19:06:53.262Z,45.72
2019-05-14T19:07:53.277Z,45.62
2019-05-14T19:08:53.290Z,45.62
2019-05-14T19:09:53.286Z,45.33
2019-05-14T19:10:53.306Z,45.50
2019-05-14T19:11:53.306Z,45.33
2019-05-14T19:12:53.313Z,45.69
2019-05-14T19:13:53.329Z,45.89
2019-05-14T19:14:53.331Z,45.72
2019-05-14T19:15:53.344Z,45.79
2019-05-14T19:16:53.360Z,45.89
2019-05-14T19:17:53.358Z,46.36
2019-05-14T19:18:53.375Z,46.26
2019-05-14T19:19:53.380Z,46.26
2019-05-14T19:20:53.390Z,46.46
2019-05-14T19:21:53.395Z,46.46
2019-05-14T19:22:53.415Z,46.08
2019-05-14T19:23:53.503Z,46.55
2019-05-14T19:24:53.427Z,46.84
2019-05-14T19:25:53.446Z,46.62
2019-05-14T19:26:53.501Z,46.84
2019-05-14T19:27:53.446Z,46.82